createdAt,value
2022-11-03T00:00:19.716Z,100755.97
2022-11-03T00:03:41.917Z,100767.13
2022-11-03T00:07:04.672Z,100774.81
2022-11-03T00:10:26.520Z,100775.66
2022-11-03T00:13:48.675Z,100775.69
2022-11-03T00:17:10.094Z,100775.69
2022-11-03T00:20:32.107Z,100744.94
2022-11-03T00:23:55.581Z,100775.66
2022-11-03T00:27:17.389Z,100779.06
2022-11-03T00:30:40.859Z,100786.84
2022-11-03T00:34:03.891Z,100777.34
2022-11-03T00:37:25.577Z,100777.28
2022-11-03T00:40:54.552Z,100768.63
2022-11-03T00:44:16.348Z,100770.41
2022-11-03T00:47:58.440Z,100771.31
2022-11-03T00:51:21.569Z,100773.06
2022-11-03T00:54:45.490Z,100777.28
2022-11-03T00:58:08.704Z,100777.28
2022-11-03T01:01:32.533Z,100768.72
2022-11-03T01:05:12.187Z,100782.47
2022-11-03T01:08:35.136Z,100779.03
2022-11-03T01:12:01.675Z,100762.69
2022-11-03T01:15:24.997Z,100769.53
2022-11-03T01:18:46.562Z,100773.81
2022-11-03T01:22:10.830Z,100776.41
2022-11-03T01:25:32.821Z,100783.31
2022-11-03T01:28:55.266Z,100780.78
2022-11-03T01:32:19.002Z,100773.94
2022-11-03T01:35:40.874Z,100785.22
2022-11-03T01:39:02.414Z,100778.31
2022-11-03T01:42:23.903Z,100767.03
2022-11-03T01:45:46.503Z,100776.59
2022-11-03T01:49:16.397Z,100772.31
2022-11-03T01:52:43.672Z,100772.31
2022-11-03T01:56:06.396Z,100774.03
2022-11-03T01:59:29.213Z,100779.25
2022-11-03T02:02:52.591Z,100766.31
2022-11-03T02:06:17.033Z,100780.03
2022-11-03T02:09:38.503Z,100769.63
2022-11-03T02:13:00.653Z,100780.78
2022-11-03T02:16:24.743Z,100771.41
2022-11-03T02:19:51.475Z,100781.63
2022-11-03T02:23:28.316Z,100779.06
2022-11-03T02:26:55.335Z,100784.31
2022-11-03T02:30:17.453Z,100785.22
2022-11-03T02:33:47.339Z,100786.06
2022-11-03T02:37:16.763Z,100783.56
2022-11-03T02:40:43.101Z,100786.25
2022-11-03T02:44:09.162Z,100791.47
2022-11-03T02:47:32.720Z,100782.84
2022-11-03T02:50:56.185Z,100781.09
2022-11-03T02:54:24.279Z,100785.44
2022-11-03T02:57:51.243Z,100783.66
2022-11-03T03:01:20.637Z,100786.19
2022-11-03T03:04:43.600Z,100785.25
2022-11-03T03:08:09.101Z,100787.09
2022-11-03T03:11:40.505Z,100788.84
2022-11-03T03:15:05.510Z,100800.09
2022-11-03T03:18:34.345Z,100794.91
2022-11-03T03:21:59.456Z,100781.28
2022-11-03T03:25:26.282Z,100795.00
2022-11-03T03:28:53.477Z,100804.56
2022-11-03T03:32:19.863Z,100804.56
2022-11-03T03:35:46.711Z,100801.03
2022-11-03T03:39:11.829Z,100798.41
2022-11-03T03:42:36.244Z,100803.63
2022-11-03T03:46:02.457Z,100788.22
2022-11-03T03:49:24.358Z,100800.22
2022-11-03T03:52:47.203Z,100795.00
2022-11-03T03:56:09.179Z,100795.91
2022-11-03T03:59:31.293Z,100800.28
2022-11-03T04:02:52.871Z,100795.22
2022-11-03T04:06:15.029Z,100805.63
2022-11-03T04:09:38.580Z,100798.81
2022-11-03T04:13:18.370Z,100800.56
2022-11-03T04:16:58.261Z,100795.38
2022-11-03T04:20:38.094Z,100797.19
2022-11-03T04:24:00.978Z,100804.03
2022-11-03T04:27:42.686Z,100789.59
2022-11-03T04:31:04.599Z,100805.78
2022-11-03T04:34:26.682Z,100814.44
2022-11-03T04:37:53.055Z,100817.03
2022-11-03T04:41:17.913Z,100810.22
2022-11-03T04:44:41.412Z,100814.41
2022-11-03T04:48:10.895Z,100808.63
2022-11-03T04:51:36.138Z,100814.53
2022-11-03T04:54:58.103Z,100822.25
2022-11-03T04:58:22.260Z,100822.25
2022-11-03T05:01:47.297Z,100792.44
2022-11-03T05:05:18.301Z,100823.06
2022-11-03T05:08:40.503Z,100825.84
2022-11-03T05:12:02.524Z,100821.63
2022-11-03T05:15:33.353Z,100835.13
2022-11-03T05:18:57.695Z,100832.53
2022-11-03T05:22:23.652Z,100828.16
2022-11-03T05:25:49.276Z,100832.53
2022-11-03T05:29:17.564Z,100838.63
2022-11-03T05:32:40.525Z,100841.22
2022-11-03T05:36:15.369Z,100839.47
2022-11-03T05:39:42.214Z,100825.97
2022-11-03T05:43:09.745Z,100847.28
2022-11-03T05:46:37.870Z,100836.13
2022-11-03T05:50:13.105Z,100842.03
2022-11-03T05:53:39.858Z,100843.78
2022-11-03T05:57:03.644Z,100848.97
2022-11-03T06:00:35.410Z,100834.22
2022-11-03T06:03:59.417Z,100828.41
2022-11-03T06:07:26.754Z,100828.34
2022-11-03T06:10:52.374Z,100842.84
2022-11-03T06:14:24.386Z,100837.06
2022-11-03T06:17:47.420Z,100853.34
2022-11-03T06:21:14.377Z,100854.31
2022-11-03T06:24:37.624Z,100873.22
2022-11-03T06:28:06.730Z,100871.47
2022-11-03T06:31:30.916Z,100870.59
2022-11-03T06:34:57.669Z,100862.81
2022-11-03T06:38:23.436Z,100874.00
2022-11-03T06:41:45.953Z,100870.53
2022-11-03T06:45:20.777Z,100874.00
2022-11-03T06:48:43.698Z,100872.19
2022-11-03T06:52:22.704Z,100876.47
2022-11-03T06:55:45.634Z,100859.44
2022-11-03T06:59:14.803Z,100881.69
2022-11-03T07:02:57.772Z,100882.53
2022-11-03T07:06:24.895Z,100883.38
2022-11-03T07:09:47.898Z,100885.09
2022-11-03T07:13:16.386Z,100892.84
2022-11-03T07:16:43.338Z,100892.91
2022-11-03T07:20:16.429Z,100898.88
2022-11-03T07:23:42.134Z,100893.75
2022-11-03T07:27:18.118Z,100904.00
2022-11-03T07:30:40.876Z,100897.97
2022-11-03T07:34:03.627Z,100893.59
2022-11-03T07:37:28.636Z,100890.13
2022-11-03T07:40:53.458Z,100891.81
2022-11-03T07:44:21.209Z,100865.34
2022-11-03T07:47:46.433Z,100897.00
2022-11-03T07:51:22.288Z,100904.72
2022-11-03T07:54:46.786Z,100899.44
2022-11-03T07:58:22.547Z,100893.34
2022-11-03T08:01:47.418Z,100898.38
2022-11-03T08:05:11.396Z,100883.66
2022-11-03T08:08:34.393Z,100886.28
2022-11-03T08:11:58.895Z,100885.34
2022-11-03T08:15:21.742Z,100910.16
2022-11-03T08:18:44.813Z,100909.25
2022-11-03T08:22:07.360Z,100906.72
2022-11-03T08:25:30.328Z,100911.81
2022-11-03T08:28:54.609Z,100900.41
2022-11-03T08:32:17.680Z,100893.69
2022-11-03T08:35:41.356Z,100900.38
2022-11-03T08:39:05.456Z,100896.88
2022-11-03T08:42:28.294Z,100908.75
2022-11-03T08:45:54.331Z,100912.94
2022-11-03T08:49:17.286Z,100911.09
2022-11-03T08:52:40.345Z,100901.34
2022-11-03T08:56:03.409Z,100889.16
2022-11-03T08:59:26.581Z,100894.97
2022-11-03T09:02:51.070Z,100893.03
2022-11-03T09:06:13.623Z,100892.09
2022-11-03T09:13:19.453Z,100892.09
2022-11-03T09:16:42.451Z,100886.06
2022-11-03T09:20:08.196Z,100886.13
2022-11-03T09:23:30.645Z,100886.13
2022-11-03T09:26:55.965Z,100883.53
2022-11-03T09:30:22.296Z,100884.28
2022-11-03T09:33:45.366Z,100890.13
2022-11-03T09:37:09.961Z,100886.59
2022-11-03T09:40:34.834Z,100884.91
2022-11-03T09:44:01.002Z,100904.56
2022-11-03T09:47:27.127Z,100901.00
2022-11-03T09:50:53.987Z,100906.03
2022-11-03T09:54:19.394Z,100899.00
2022-11-03T09:57:42.163Z,100915.38
2022-11-03T10:01:05.037Z,100917.06
2022-11-03T10:04:30.473Z,100900.78
2022-11-03T10:11:23.924Z,100909.00
2022-11-03T10:14:48.316Z,100910.53
2022-11-03T10:19:00.947Z,100912.94
2022-11-03T10:22:24.418Z,100910.19
2022-11-03T10:25:47.893Z,100907.16
2022-11-03T10:29:21.603Z,100901.72
2022-11-03T10:32:47.526Z,100914.53
2022-11-03T10:36:25.851Z,100904.13
2022-11-03T10:39:49.020Z,100906.69
2022-11-03T10:43:13.822Z,100916.16
2022-11-03T10:46:50.585Z,100903.38
2022-11-03T10:50:26.467Z,100916.22
2022-11-03T10:53:51.263Z,100918.00
2022-11-03T10:57:14.946Z,100921.56
2022-11-03T11:00:37.723Z,100897.56
2022-11-03T11:04:02.530Z,100912.16
2022-11-03T11:07:28.223Z,100918.19
2022-11-03T11:10:51.192Z,100920.72
2022-11-03T11:14:24.802Z,100919.84
2022-11-03T11:17:50.522Z,100925.84
2022-11-03T11:21:48.195Z,100914.63
2022-11-03T11:25:12.895Z,100919.94
2022-11-03T11:28:35.647Z,100913.84
2022-11-03T11:31:58.714Z,100910.56
2022-11-03T11:36:00.687Z,100923.50
2022-11-03T11:39:47.096Z,100923.50
2022-11-03T11:43:30.644Z,100929.47
2022-11-03T11:46:53.497Z,100918.94
2022-11-03T11:50:24.547Z,100917.06
2022-11-03T11:53:58.765Z,100907.66
2022-11-03T11:57:37.092Z,100910.25
2022-11-03T12:01:03.836Z,100920.41
2022-11-03T12:04:31.960Z,100916.03
2022-11-03T12:07:55.081Z,100919.53
2022-11-03T12:11:37.907Z,100914.34
2022-11-03T12:15:00.973Z,100923.81
2022-11-03T12:18:42.556Z,100927.38
2022-11-03T12:22:12.596Z,100925.69
2022-11-03T12:25:40.571Z,100928.31
2022-11-03T12:29:03.223Z,100924.84
2022-11-03T12:32:33.615Z,100933.34
2022-11-03T12:35:59.899Z,100935.06
2022-11-03T12:39:23.366Z,100932.47
2022-11-03T12:42:46.544Z,100931.53
2022-11-03T12:46:09.597Z,100928.13
2022-11-03T12:49:32.252Z,100940.09
2022-11-03T12:52:56.845Z,100932.25
2022-11-03T12:56:21.033Z,100916.94
2022-11-03T12:59:43.795Z,100939.13
2022-11-03T13:03:07.419Z,100935.81
2022-11-03T13:06:30.736Z,100934.97
2022-11-03T13:09:55.333Z,100944.59
2022-11-03T13:13:18.290Z,100943.78
2022-11-03T13:16:40.947Z,100947.34
2022-11-03T13:20:03.890Z,100952.63
2022-11-03T13:23:27.682Z,100938.00
2022-11-03T13:26:52.078Z,100956.94
2022-11-03T13:30:15.347Z,100942.41
2022-11-03T13:33:38.099Z,100935.59
2022-11-03T13:37:01.265Z,100953.69
2022-11-03T13:44:09.306Z,100957.31
2022-11-03T13:47:40.475Z,100949.69
2022-11-03T13:51:18.125Z,100950.03
2022-11-03T16:35:39.001Z,100971.38
2022-11-03T16:39:01.213Z,100960.44
2022-11-03T16:42:23.428Z,100966.44
2022-11-03T16:45:45.720Z,100968.94
2022-11-03T16:49:08.082Z,100970.78
2022-11-03T16:52:31.559Z,100951.09
2022-11-03T16:55:53.736Z,100957.16
2022-11-03T16:59:15.686Z,100965.81
2022-11-03T17:02:37.756Z,100971.88
2022-11-03T17:05:59.755Z,100943.91
2022-11-03T17:09:23.284Z,100972.72
2022-11-03T17:12:45.123Z,100970.22
2022-11-03T17:16:08.618Z,100941.09
2022-11-03T17:19:30.710Z,100961.63
2022-11-03T17:22:52.682Z,100966.56
2022-11-03T17:26:16.405Z,100965.66
2022-11-03T17:29:42.261Z,100945.16
2022-11-03T17:33:10.359Z,100956.16
2022-11-03T17:36:33.647Z,100963.94
2022-11-03T17:39:56.888Z,100966.56
2022-11-03T17:43:22.781Z,100964.81
2022-11-03T17:46:44.736Z,100964.88
2022-11-03T17:50:07.087Z,100961.53
2022-11-03T17:53:32.110Z,100966.84
2022-11-03T17:56:54.007Z,100947.97
2022-11-03T18:00:21.970Z,100957.28
2022-11-03T18:03:43.851Z,100959.03
2022-11-03T18:07:12.982Z,100958.09
2022-11-03T18:10:36.840Z,100955.53
2022-11-03T18:13:57.346Z,100955.53
2022-11-03T18:17:20.575Z,100956.56
2022-11-03T18:20:51.898Z,100964.34
2022-11-03T18:24:18.300Z,100965.31
2022-11-03T18:27:40.333Z,100959.34
2022-11-03T18:31:02.082Z,100957.56
2022-11-03T18:34:28.245Z,100965.31
2022-11-03T18:37:51.880Z,100968.81
2022-11-03T18:41:29.232Z,100964.47
2022-11-03T18:44:51.290Z,100966.31
2022-11-03T18:48:19.476Z,100968.09
2022-11-03T18:51:51.199Z,100957.03
2022-11-03T18:55:13.930Z,100969.84
2022-11-03T18:58:35.891Z,100969.00
2022-11-03T19:01:58.134Z,100972.56
2022-11-03T19:05:20.544Z,100958.03
2022-11-03T19:08:46.650Z,100977.88
2022-11-03T19:12:11.645Z,100948.09
2022-11-03T19:15:33.448Z,100974.59
2022-11-03T19:18:55.305Z,100970.25
2022-11-03T19:22:18.650Z,100968.72
2022-11-03T19:25:44.121Z,100966.41
2022-11-03T19:29:10.731Z,100974.91
2022-11-03T19:32:36.970Z,100965.50
2022-11-03T19:35:59.185Z,100969.78
2022-11-03T19:39:26.328Z,100974.16
2022-11-03T19:42:49.883Z,100978.50
2022-11-03T19:46:18.946Z,100972.47
2022-11-03T19:49:40.659Z,100975.16
2022-11-03T19:53:04.579Z,100968.38
2022-11-03T19:56:26.449Z,100962.41
2022-11-03T19:59:50.235Z,100969.25
2022-11-03T20:03:12.610Z,100963.28
2022-11-03T20:06:34.905Z,100970.06
2022-11-03T20:09:56.835Z,100958.88
2022-11-03T20:13:22.189Z,100964.03
2022-11-03T20:16:45.531Z,100964.91
2022-11-03T20:20:08.446Z,100966.63
2022-11-03T20:23:34.356Z,100962.25
2022-11-03T20:26:56.473Z,100952.78
2022-11-03T20:30:21.335Z,100962.25
2022-11-03T20:33:44.907Z,100963.94
2022-11-03T20:37:16.915Z,100948.59
2022-11-03T20:40:38.959Z,100969.94
2022-11-03T20:44:01.088Z,100960.47
2022-11-03T20:47:23.385Z,100949.47
2022-11-03T20:50:46.919Z,100957.09
2022-11-03T20:54:16.143Z,100970.97
2022-11-03T20:57:38.676Z,100965.00
2022-11-03T21:01:01.534Z,100965.84
2022-11-03T21:04:23.591Z,100964.13
2022-11-03T21:07:47.322Z,100965.94
2022-11-03T21:11:27.787Z,100966.63
2022-11-03T21:15:03.755Z,100969.25
2022-11-03T21:18:43.437Z,100943.56
2022-11-03T21:25:59.035Z,100945.28
2022-11-03T21:29:38.968Z,100958.91
2022-11-03T21:33:03.114Z,100959.81
2022-11-03T21:36:25.263Z,100962.44
2022-11-03T21:39:47.751Z,100957.38
2022-11-03T21:43:29.455Z,100965.00
2022-11-03T21:46:51.469Z,100958.13
2022-11-03T21:50:13.269Z,100969.41
2022-11-03T21:53:34.945Z,100965.13
2022-11-03T21:56:57.165Z,100966.88
2022-11-03T22:00:20.432Z,100961.66
2022-11-03T22:03:42.399Z,100969.41
2022-11-03T22:07:04.829Z,100960.84
2022-11-03T22:10:26.809Z,100960.06
2022-11-03T22:13:48.766Z,100967.72
2022-11-03T22:17:10.905Z,100968.75
2022-11-03T22:20:50.413Z,100936.25
2022-11-03T22:24:30.113Z,100965.28
2022-11-03T22:27:52.096Z,100963.59
2022-11-03T22:31:31.232Z,100956.72
2022-11-03T22:35:11.834Z,100961.94
2022-11-03T22:38:56.828Z,100968.91
2022-11-03T22:42:36.357Z,100967.16
2022-11-03T22:45:58.683Z,100968.16
2022-11-03T22:49:20.380Z,100972.56
2022-11-03T22:52:43.886Z,100964.81
2022-11-03T22:56:05.933Z,100961.44
2022-11-03T22:59:27.943Z,100958.03
2022-11-03T23:02:49.426Z,100951.22
2022-11-03T23:06:13.353Z,100953.72
2022-11-03T23:09:36.631Z,100962.31
2022-11-03T23:12:58.616Z,100958.88
2022-11-03T23:16:22.973Z,100956.34
2022-11-03T23:20:02.488Z,100953.91
2022-11-03T23:23:44.474Z,100957.44
2022-11-03T23:27:08.376Z,100960.06
2022-11-03T23:30:30.453Z,100960.13
2022-11-03T23:33:52.768Z,100961.91
2022-11-03T23:37:14.894Z,100963.69
2022-11-03T23:40:36.620Z,100966.28
2022-11-03T23:44:00.101Z,100963.72
2022-11-03T23:47:39.922Z,100951.63
2022-11-03T23:51:02.228Z,100962.03
2022-11-03T23:54:24.542Z,100962.03
2022-11-03T23:58:04.277Z,100955.19
